Time;durP1;ratioP1;P1;durP2;ratioP2;P2;SDS_P1;SDS_P2;PMS_P1;PMS_P2;Temp;Humidity;BMP_temperature;BMP_pressure;BME280_temperature;BME280_humidity;BME280_pressure;Samples;Min_cycle;Max_cycle;Signal;HPM_P1;HPM_P2
2022/11/02 00:00:53;;;;;;;10.30;2.03;;;13.30;99.90;;;-144.05;54.63;125687.94;5013095;28;20109;-79
2022/11/02 00:03:19;;;;;;;18.73;2.15;;;13.30;99.90;;;-144.05;54.51;125687.94;5012975;28;20029;-77
2022/11/02 00:05:45;;;;;;;11.63;2.38;;;13.30;99.90;;;-144.05;54.66;125687.94;5012856;28;20049;-78
2022/11/02 00:08:11;;;;;;;10.73;1.90;;;13.30;99.90;;;-144.05;54.65;125687.94;5012730;28;20270;-80
2022/11/02 00:10:37;;;;;;;9.73;2.13;;;13.40;99.90;;;-144.05;54.42;125687.94;5013154;28;20072;-78
2022/11/02 00:13:03;;;;;;;13.65;2.50;;;13.40;99.90;;;-144.05;54.09;125687.94;5012737;28;20038;-78
2022/11/02 00:15:35;;;;;;;10.90;2.03;;;13.40;99.90;;;-144.05;53.94;125687.94;5012567;28;20045;-79
2022/11/02 00:18:13;;;;;;;8.13;2.20;;;13.50;99.90;;;-144.05;54.10;125687.94;5012537;28;20108;-79
2022/11/02 00:20:42;;;;;;;12.65;2.25;;;13.50;99.90;;;-144.05;54.09;125687.94;4994505;28;20079;-80
2022/11/02 00:23:12;;;;;;;8.38;2.08;;;13.50;99.90;;;-144.05;54.33;125687.94;5012711;28;20049;-79
2022/11/02 00:25:47;;;;;;;7.65;1.83;;;13.40;99.90;;;-144.05;54.25;125687.94;4995022;28;20022;-77
2022/11/02 00:28:14;;;;;;;15.18;2.30;;;13.40;99.90;;;-144.05;54.24;125687.94;4994682;28;20077;-79
2022/11/02 00:30:41;;;;;;;15.60;2.42;;;13.40;99.90;;;-144.05;54.08;125687.94;4994695;28;20030;-79
2022/11/02 00:33:06;;;;;;;11.27;2.10;;;13.50;99.90;;;-144.05;53.95;125687.94;5012361;28;20029;-77
2022/11/02 00:35:35;;;;;;;13.38;2.22;;;13.50;99.90;;;-144.05;54.56;125687.94;5012272;28;20037;-79
2022/11/02 00:38:01;;;;;;;13.13;2.30;;;13.40;99.90;;;-144.05;54.36;125687.94;5012196;28;20092;-78
2022/11/02 00:40:27;;;;;;;14.02;2.28;;;13.40;99.90;;;-144.05;54.56;125687.94;5012250;28;20030;-80
2022/11/02 00:42:53;;;;;;;12.40;2.65;;;13.40;99.90;;;-144.05;54.83;125687.94;4994509;28;20033;-79
2022/11/02 00:45:19;;;;;;;11.00;2.20;;;13.40;99.90;;;-144.05;54.80;125687.94;4994344;28;20547;-78
2022/11/02 00:47:45;;;;;;;7.25;1.85;;;13.40;99.90;;;-144.05;54.98;125687.94;5012114;28;20061;-81
2022/11/02 00:50:11;;;;;;;9.05;2.13;;;13.30;99.90;;;-144.05;56.01;125687.94;4998990;28;20033;-82
2022/11/02 00:52:39;;;;;;;11.13;2.33;;;13.30;99.90;;;-144.05;56.35;125687.94;4998873;28;20393;-81
2022/11/02 00:55:10;;;;;;;11.63;2.15;;;13.30;99.90;;;-144.05;57.00;125687.94;4997952;28;20034;-82
2022/11/02 00:57:39;;;;;;;9.13;1.90;;;13.20;99.90;;;-144.05;58.09;125687.94;5014135;28;20030;-80
2022/11/02 01:00:08;;;;;;;11.57;2.28;;;13.10;99.90;;;-144.05;58.30;125687.94;5013659;28;20033;-78
2022/11/02 01:02:36;;;;;;;10.85;1.88;;;13.00;99.90;;;-144.05;59.02;125687.94;5013609;28;20026;-80
2022/11/02 01:05:04;;;;;;;13.23;2.03;;;12.90;99.90;;;-144.05;59.13;125687.94;5013431;28;20036;-81
2022/11/02 01:07:30;;;;;;;11.80;1.88;;;12.90;99.90;;;-144.05;59.44;125687.94;5012738;28;20166;-81
2022/11/02 01:09:56;;;;;;;17.20;2.63;;;12.80;99.90;;;-144.05;59.27;125687.94;5012782;28;20377;-80
2022/11/02 01:12:22;;;;;;;9.73;2.15;;;12.80;99.90;;;-144.05;59.44;125687.94;4994970;28;20117;-79
2022/11/02 01:14:49;;;;;;;12.00;1.70;;;12.80;99.90;;;-144.05;59.02;125687.94;5012824;28;20112;-81
2022/11/02 01:17:18;;;;;;;14.02;2.40;;;12.80;99.90;;;-144.05;59.72;125687.94;4995153;28;20061;-81
2022/11/02 01:19:44;;;;;;;12.02;2.03;;;12.90;99.90;;;-144.05;58.71;125687.94;5012660;28;20054;-80
2022/11/02 01:22:10;;;;;;;12.75;1.75;;;12.90;99.90;;;-144.05;58.65;125687.94;4995448;28;20061;-79
2022/11/02 01:24:36;;;;;;;13.07;2.08;;;13.00;99.90;;;-144.05;58.60;125687.94;5012290;28;20342;-80
2022/11/02 01:27:02;;;;;;;10.10;1.83;;;12.90;99.90;;;-144.05;58.41;125687.94;4999814;28;20128;-80
2022/11/02 01:29:28;;;;;;;9.15;1.92;;;13.00;99.90;;;-144.05;58.36;125687.94;5022534;28;20052;-81
2022/11/02 01:31:54;;;;;;;9.10;1.52;;;13.00;99.90;;;-144.05;58.00;125687.94;5021398;28;20022;-81
2022/11/02 01:34:21;;;;;;;8.07;1.67;;;13.00;99.90;;;-144.05;58.50;125687.94;5021245;28;20041;-81
2022/11/02 01:36:47;;;;;;;8.32;1.85;;;13.00;99.90;;;-144.05;58.31;125687.94;5021931;28;20030;-81
2022/11/02 01:39:15;;;;;;;7.35;2.25;;;12.90;99.90;;;-144.05;58.21;125687.94;5021736;28;20112;-80
2022/11/02 01:41:41;;;;;;;8.35;1.67;;;12.90;99.90;;;-144.05;58.36;125687.94;5001551;28;20026;-79
2022/11/02 01:44:28;;;;;;;6.50;1.50;;;12.80;99.90;;;-144.05;58.46;125687.94;5011948;28;20029;-78
2022/11/02 01:47:10;;;;;;;8.82;1.67;;;12.90;99.90;;;-144.05;58.48;125687.94;5011655;28;20029;-76
2022/11/02 01:49:44;;;;;;;14.20;2.67;;;12.80;99.90;;;-144.05;58.25;125687.94;5021213;28;20030;-81
2022/11/02 01:52:23;;;;;;;10.90;1.48;;;12.80;99.90;;;-144.05;58.43;125687.94;5012757;28;20034;-78
2022/11/02 01:55:03;;;;;;;11.55;1.77;;;12.80;99.90;;;-144.05;58.83;125687.94;5011768;28;20037;-77
2022/11/02 01:57:35;;;;;;;11.80;2.15;;;12.70;99.90;;;-144.05;58.69;125687.94;5011048;28;20041;-78
2022/11/02 02:00:13;;;;;;;7.20;1.65;;;12.70;99.90;;;-144.05;58.65;125687.94;4993625;28;20030;-78
2022/11/02 02:02:54;;;;;;;12.00;2.00;;;12.60;99.90;;;-144.05;59.31;125687.94;4993713;28;20500;-79
2022/11/02 02:05:23;;;;;;;9.00;1.73;;;12.60;99.90;;;-144.05;58.83;125687.94;4993617;28;20480;-80
2022/11/02 02:07:51;;;;;;;12.77;2.15;;;12.60;99.90;;;-144.05;58.85;125687.94;5010912;28;20156;-78
2022/11/02 02:10:38;;;;;;;11.90;2.30;;;12.70;99.90;;;-144.05;58.83;125687.94;4993258;28;20061;-79
2022/11/02 02:13:06;;;;;;;7.88;1.85;;;12.70;99.90;;;-144.05;58.72;125687.94;5011321;28;20037;-79
2022/11/02 02:16:19;;;;;;;11.27;2.05;;;12.70;99.90;;;-144.05;58.39;125687.94;4993384;28;20080;-79
2022/11/02 02:18:57;;;;;;;12.43;1.98;;;12.80;99.90;;;-144.05;58.21;125687.94;5010808;28;20026;-80
2022/11/02 02:21:57;;;;;;;9.75;1.73;;;12.90;99.90;;;-144.05;57.76;125687.94;4993587;28;20331;-78
2022/11/02 02:25:35;;;;;;;11.98;2.38;;;12.90;99.90;;;-144.05;58.03;125687.94;5011021;28;20096;-78
2022/11/02 02:28:23;;;;;;;11.85;2.97;;;13.00;99.90;;;-144.05;58.00;125687.94;4994884;28;20030;-81
2022/11/02 02:31:12;;;;;;;9.50;1.50;;;13.00;99.90;;;-144.05;57.58;125687.94;4994365;28;20041;-78
2022/11/02 02:34:09;;;;;;;13.20;2.10;;;13.10;99.90;;;-144.05;57.63;125687.94;4993763;28;20037;-78
2022/11/02 02:36:51;;;;;;;;;;;13.00;99.90;;;-144.05;57.54;125687.94;5007374;28;20130;-79
2022/11/02 02:39:48;;;;;;;8.18;1.80;;;13.00;99.90;;;-144.05;57.93;125687.94;4992921;28;19914;-79
2022/11/02 02:42:29;;;;;;;10.88;2.13;;;13.00;99.90;;;-144.05;58.05;125687.94;5011094;28;20426;-79
2022/11/02 02:45:38;;;;;;;8.60;1.75;;;12.90;99.90;;;-144.05;57.81;125687.94;5012672;28;20343;-80
2022/11/02 02:48:19;;;;;;;13.27;2.17;;;12.90;99.90;;;-144.05;57.76;125687.94;5013513;28;20097;-78
2022/11/02 02:51:03;;;;;;;6.35;1.80;;;12.80;99.90;;;-144.05;57.86;125687.94;5014250;28;20029;-77
2022/11/02 02:53:58;;;;;;;8.25;2.13;;;12.70;99.90;;;-144.05;58.44;125687.94;5014360;28;20464;-78
2022/11/02 02:56:35;;;;;;;10.10;1.77;;;12.80;99.90;;;-144.05;58.51;125687.94;4996517;28;20030;-79
2022/11/02 02:59:28;;;;;;;11.88;2.33;;;12.70;99.90;;;-144.05;58.33;125687.94;5013940;28;20113;-79
2022/11/02 03:01:56;;;;;;;8.18;2.88;;;12.70;99.90;;;-144.05;58.46;125687.94;4996409;28;20026;-77
2022/11/02 03:04:22;;;;;;;10.70;2.25;;;12.70;99.90;;;-144.05;58.69;125687.94;5013771;28;20038;-80
2022/11/02 03:06:57;;;;;;;10.90;2.13;;;12.70;99.90;;;-144.05;58.24;125687.94;5013912;28;20084;-78
2022/11/02 03:09:55;;;;;;;12.35;2.35;;;12.70;99.90;;;-144.05;58.54;125687.94;5013778;28;20117;-80
2022/11/02 03:13:00;;;;;;;7.47;1.70;;;12.70;99.90;;;-144.05;58.67;125687.94;5013925;28;20030;-79
2022/11/02 03:16:04;;;;;;;13.90;2.25;;;12.70;99.90;;;-144.05;58.53;125687.94;5013673;28;20575;-78
2022/11/02 03:18:54;;;;;;;10.13;2.10;;;12.70;99.90;;;-144.05;58.86;125687.94;5013307;28;20126;-79
2022/11/02 03:21:42;;;;;;;9.90;2.00;;;12.70;99.90;;;-144.05;58.99;125687.94;5013701;28;20038;-79
2022/11/02 03:24:46;;;;;;;9.23;2.10;;;12.70;99.90;;;-144.05;58.63;125687.94;5012452;28;20072;-78
2022/11/02 03:27:41;;;;;;;7.95;2.67;;;12.70;99.90;;;-144.05;59.18;125687.94;5013275;28;20045;-78
2022/11/02 03:30:16;;;;;;;9.63;2.13;;;12.60;99.90;;;-144.05;59.12;125687.94;4995929;28;20164;-79
2022/11/02 03:33:25;;;;;;;9.82;1.70;;;12.60;99.90;;;-144.05;58.95;125687.94;4995993;28;20026;-78
2022/11/02 03:36:11;;;;;;;10.93;2.22;;;12.70;99.90;;;-144.05;58.52;125687.94;5013388;28;20085;-78
2022/11/02 03:38:50;;;;;;;10.85;2.45;;;12.80;99.90;;;-144.05;58.85;125687.94;5013242;28;20386;-78
2022/11/02 03:41:23;;;;;;;12.55;2.17;;;12.80;99.90;;;-144.05;58.47;125687.94;5014528;28;20105;-80
2022/11/02 03:44:05;;;;;;;10.02;2.28;;;12.80;99.90;;;-144.05;58.17;125687.94;5013909;28;20026;-81
2022/11/02 03:46:39;;;;;;;6.57;1.70;;;12.90;99.90;;;-144.05;58.05;125687.94;4996417;28;20026;-80
2022/11/02 03:49:10;;;;;;;12.55;2.28;;;12.80;99.90;;;-144.05;57.76;125687.94;5014246;28;20041;-82
2022/11/02 03:51:44;;;;;;;12.93;2.10;;;12.90;99.90;;;-144.05;57.63;125687.94;5013873;28;20114;-77
2022/11/02 03:54:39;;;;;;;11.15;2.30;;;12.80;99.90;;;-144.05;58.05;125687.94;5013533;28;20101;-77
2022/11/02 03:57:16;;;;;;;8.68;1.70;;;12.90;99.90;;;-144.05;58.00;125687.94;5012211;28;20029;-78
2022/11/02 03:59:42;;;;;;;9.63;2.25;;;12.80;99.90;;;-144.05;57.68;125687.94;5013236;28;20492;-79
2022/11/02 04:02:12;;;;;;;7.05;1.60;;;12.80;99.90;;;-144.05;58.00;125687.94;4995731;28;20033;-79
2022/11/02 04:04:50;;;;;;;11.60;2.33;;;12.80;99.90;;;-144.05;57.70;125687.94;4996147;28;20033;-79
2022/11/02 04:08:19;;;;;;;8.02;1.50;;;12.80;99.90;;;-144.05;57.82;125687.94;5013813;28;20026;-77
2022/11/02 04:10:18;;;;;;;12.10;2.20;;;12.70;99.90;;;-144.05;57.59;125687.94;5013907;28;20187;-80
2022/11/02 04:15:28;;;;;;;11.75;2.72;;;12.80;99.90;;;-144.05;57.07;125687.94;5013685;28;20421;-78
2022/11/02 04:20:38;;;;;;;12.30;2.05;;;12.80;99.90;;;-144.05;57.44;125687.94;5013329;28;20033;-79
2022/11/02 04:25:54;;;;;;;7.32;2.10;;;12.70;99.90;;;-144.05;57.80;125687.94;5013259;28;20042;-78
2022/11/02 04:28:21;;;;;;;7.95;2.50;;;12.70;99.90;;;-144.05;57.73;125687.94;4995359;28;20034;-79
2022/11/02 04:30:47;;;;;;;9.50;2.35;;;12.70;99.90;;;-144.05;57.98;125687.94;4995109;28;20040;-79
2022/11/02 04:33:31;;;;;;;8.15;2.38;;;12.70;99.90;;;-144.05;58.14;125687.94;4995194;28;20061;-77
2022/11/02 04:36:06;;;;;;;12.73;2.45;;;12.70;99.90;;;-144.05;57.83;125687.94;5012920;28;20108;-81
2022/11/02 04:38:42;;;;;;;12.38;2.28;;;12.60;99.90;;;-144.05;58.02;125687.94;5012528;28;20105;-79
2022/11/02 04:44:00;;;;;;;12.65;2.35;;;12.60;99.90;;;-144.05;57.96;125687.94;5013158;28;20068;-79
2022/11/02 04:46:33;;;;;;;9.27;1.60;;;12.60;99.90;;;-144.05;57.96;125687.94;4994909;28;20129;-80
2022/11/02 04:49:09;;;;;;;7.53;2.47;;;12.60;99.90;;;-144.05;57.91;125687.94;5011492;23;20038;-84
2022/11/02 04:51:35;;;;;;;;;;;12.60;99.90;;;-144.05;57.71;125687.94;4977523;28;20417;-84
2022/11/02 04:54:02;;;;;;;10.02;2.20;;;12.60;99.90;;;-144.05;57.08;125687.94;4972478;28;20405;-83
2022/11/02 04:56:29;;;;;;;10.63;2.17;;;12.70;99.90;;;-144.05;57.23;125687.94;4956408;28;20035;-82
2022/11/02 04:58:59;;;;;;;6.55;1.98;;;12.60;99.90;;;-144.05;57.10;125687.94;4955740;28;20205;-84
2022/11/02 05:01:29;;;;;;;12.63;2.33;;;12.60;99.90;;;-144.05;57.23;125687.94;4956956;28;20034;-87
2022/11/02 05:03:56;;;;;;;9.65;2.03;;;12.60;99.90;;;-144.05;57.05;125687.94;5038407;23;20042;-80
2022/11/02 05:06:24;;;;;;;10.48;1.65;;;12.60;99.90;;;-144.05;57.00;125687.94;5010900;28;20393;-76
2022/11/02 05:08:50;;;;;;;9.10;1.80;;;12.50;99.90;;;-144.05;57.60;125687.94;5012151;28;20034;-79
2022/11/02 05:11:16;;;;;;;12.10;2.13;;;12.40;99.90;;;-144.05;57.58;125687.94;5012155;28;20065;-79
2022/11/02 05:13:43;;;;;;;12.75;1.95;;;12.40;99.90;;;-144.05;57.50;125687.94;5021532;28;20037;-80
2022/11/02 05:16:15;;;;;;;9.13;2.25;;;12.40;99.90;;;-144.05;57.64;125687.94;5019928;28;20026;-78
2022/11/02 05:18:42;;;;;;;9.30;1.67;;;12.50;99.90;;;-144.05;57.73;125687.94;5011993;28;20029;-79
2022/11/02 05:21:11;;;;;;;6.82;1.92;;;12.50;99.90;;;-144.05;57.53;125687.94;5013062;28;20030;-80
2022/11/02 05:23:38;;;;;;;8.18;1.92;;;12.50;99.90;;;-144.05;57.20;125687.94;5012663;28;20088;-81
2022/11/02 05:26:10;;;;;;;9.88;1.90;;;12.50;99.90;;;-144.05;57.15;125687.94;5011954;28;20037;-82
2022/11/02 05:28:36;;;;;;;7.25;1.88;;;12.60;99.90;;;-144.05;57.07;125687.94;5011619;28;20429;-80
2022/11/02 05:31:03;;;;;;;7.90;1.35;;;12.60;99.90;;;-144.05;56.81;125687.94;5010606;28;20030;-78
2022/11/02 05:33:31;;;;;;;15.60;1.92;;;12.70;99.90;;;-144.05;56.90;125687.94;5011757;28;20045;-78
2022/11/02 05:35:59;;;;;;;7.43;1.60;;;12.70;99.90;;;-144.05;56.74;125687.94;5012283;28;20034;-81
2022/11/02 05:38:26;;;;;;;12.52;2.20;;;12.60;99.90;;;-144.05;56.68;125687.94;5010005;28;20029;-78
2022/11/02 05:40:58;;;;;;;10.57;1.95;;;12.60;99.90;;;-144.05;56.61;125687.94;5011914;28;20065;-79
2022/11/02 05:43:25;;;;;;;13.23;2.40;;;12.60;99.90;;;-144.05;56.45;125687.94;5012468;28;20068;-78
2022/11/02 05:45:55;;;;;;;9.93;2.67;;;12.60;99.90;;;-144.05;56.40;125687.94;5012529;28;20096;-78
2022/11/02 05:48:22;;;;;;;11.98;2.28;;;12.80;99.90;;;-144.05;56.25;125687.94;5010842;28;20037;-78
2022/11/02 05:50:53;;;;;;;11.30;2.13;;;12.70;99.90;;;-144.05;56.06;125687.94;5012030;28;20104;-79
2022/11/02 05:53:19;;;;;;;9.80;1.95;;;12.70;99.90;;;-144.05;55.77;125687.94;5010747;28;20104;-75
2022/11/02 05:55:45;;;;;;;8.80;2.35;;;12.80;99.90;;;-144.05;55.89;125687.94;5011979;28;20109;-78
2022/11/02 05:58:10;;;;;;;13.68;2.80;;;12.90;99.90;;;-144.05;56.07;125687.94;5010761;28;20029;-79
2022/11/02 06:00:36;;;;;;;11.63;1.67;;;12.80;99.90;;;-144.05;56.28;125687.94;5012388;28;20184;-80
2022/11/02 06:03:02;;;;;;;9.32;2.10;;;12.70;99.90;;;-144.05;56.55;125687.94;5022956;28;20040;-78
2022/11/02 06:05:28;;;;;;;13.30;2.15;;;12.70;99.90;;;-144.05;56.90;125687.94;5032462;28;20108;-79
2022/11/02 06:07:59;;;;;;;6.38;1.30;;;12.60;99.90;;;-144.05;56.99;125687.94;5032054;28;20037;-79
2022/11/02 06:10:29;;;;;;;12.95;2.25;;;12.50;99.90;;;-144.05;57.34;125687.94;5014430;28;20376;-78
2022/11/02 06:12:59;;;;;;;7.90;2.20;;;12.50;99.90;;;-144.05;56.90;125687.94;5032863;28;20091;-79
2022/11/02 06:15:25;;;;;;;10.57;2.13;;;12.50;99.90;;;-144.05;56.74;125687.94;5033245;28;20104;-81
2022/11/02 06:17:51;;;;;;;10.20;1.85;;;12.50;99.90;;;-144.05;56.84;125687.94;5015004;28;20040;-81
2022/11/02 06:20:18;;;;;;;8.43;2.20;;;12.40;99.90;;;-144.05;56.63;125687.94;5035111;28;20100;-80
2022/11/02 06:22:45;;;;;;;11.63;2.10;;;12.40;99.90;;;-144.05;56.77;125687.94;5036939;28;20029;-80
2022/11/02 06:25:11;;;;;;;13.23;1.88;;;12.50;99.90;;;-144.05;56.91;125687.94;5036713;28;20036;-76
2022/11/02 06:27:38;;;;;;;12.80;2.42;;;12.40;99.90;;;-144.05;56.80;125687.94;5035903;28;20033;-79
2022/11/02 06:30:05;;;;;;;11.98;2.10;;;12.40;99.90;;;-144.05;57.06;125687.94;5036826;28;20029;-78
2022/11/02 06:32:31;;;;;;;9.85;1.90;;;12.40;99.90;;;-144.05;57.24;125687.94;5018513;28;20036;-80
2022/11/02 06:34:57;;;;;;;17.77;2.40;;;12.40;99.90;;;-144.05;56.55;125687.94;5035713;28;20392;-79
2022/11/02 06:37:23;;;;;;;10.05;1.90;;;12.40;99.90;;;-144.05;56.35;125687.94;5017996;28;20041;-77
2022/11/02 06:39:48;;;;;;;11.80;1.75;;;12.40;99.90;;;-144.05;57.08;125687.94;5036261;28;20025;-78
2022/11/02 06:42:14;;;;;;;9.35;2.33;;;12.30;99.90;;;-144.05;56.98;125687.94;5018426;28;20060;-80
2022/11/02 06:44:40;;;;;;;9.35;2.05;;;12.40;99.90;;;-144.05;56.63;125687.94;5036310;28;20032;-79
2022/11/02 06:47:06;;;;;;;18.17;2.50;;;12.30;99.90;;;-144.05;56.68;125687.94;5018026;28;20048;-77
2022/11/02 06:49:32;;;;;;;10.52;1.73;;;12.40;99.90;;;-144.05;56.76;125687.94;5035979;28;20029;-80
2022/11/02 06:51:58;;;;;;;13.50;2.28;;;12.40;99.90;;;-144.05;56.44;125687.94;5036277;28;20357;-78
2022/11/02 06:54:24;;;;;;;12.02;2.10;;;12.40;99.90;;;-144.05;56.21;125687.94;5017021;28;20028;-78
2022/11/02 06:56:50;;;;;;;5.63;1.38;;;12.50;99.90;;;-144.05;56.16;125687.94;5034818;28;20037;-79
2022/11/02 06:59:15;;;;;;;10.32;2.30;;;12.60;99.90;;;-144.05;55.70;125687.94;5034957;28;20532;-79
2022/11/02 07:01:41;;;;;;;10.20;1.85;;;12.60;99.90;;;-144.05;55.52;125687.94;5018923;28;20370;-76
2022/11/02 07:04:07;;;;;;;10.70;1.83;;;12.70;99.90;;;-144.05;55.31;125687.94;5035019;28;20029;-78
2022/11/02 07:06:33;;;;;;;10.30;2.70;;;12.70;99.90;;;-144.05;54.82;125687.94;5037478;28;20026;-77
2022/11/02 07:08:59;;;;;;;10.02;2.08;;;12.70;99.90;;;-144.05;55.06;125687.94;5018995;28;20076;-78
2022/11/02 07:11:25;;;;;;;15.50;1.90;;;12.80;99.90;;;-144.05;54.66;125687.94;5035985;28;20205;-79
2022/11/02 07:13:51;;;;;;;12.52;2.28;;;12.80;99.90;;;-144.05;55.14;125687.94;5036763;28;20025;-78
2022/11/02 07:16:16;;;;;;;9.23;1.80;;;12.80;99.90;;;-144.05;55.13;125687.94;5037540;28;20121;-78
2022/11/02 07:18:42;;;;;;;8.05;1.73;;;12.70;99.90;;;-144.05;55.02;125687.94;5018587;28;20029;-78
2022/11/02 07:21:10;;;;;;;12.45;1.83;;;12.70;99.90;;;-144.05;54.86;125687.94;5035992;28;20057;-81
2022/11/02 07:23:36;;;;;;;11.38;1.83;;;12.70;99.90;;;-144.05;55.00;125687.94;5036910;28;20112;-82
2022/11/02 07:26:03;;;;;;;11.57;1.88;;;12.70;99.90;;;-144.05;54.94;125687.94;5041126;28;20021;-79
2022/11/02 07:28:29;;;;;;;16.30;2.42;;;12.70;99.90;;;-144.05;54.82;125687.94;5039059;28;20068;-81
2022/11/02 07:30:55;;;;;;;7.90;1.70;;;12.70;99.90;;;-144.05;54.73;125687.94;5038801;28;20244;-79
2022/11/02 07:33:21;;;;;;;9.65;2.20;;;12.80;99.90;;;-144.05;54.91;125687.94;5038808;28;20036;-80
2022/11/02 07:35:47;;;;;;;9.70;1.58;;;12.80;99.90;;;-144.05;54.75;125687.94;5019695;28;20037;-78
2022/11/02 07:38:13;;;;;;;13.75;1.95;;;12.70;99.90;;;-144.05;54.48;125687.94;5037197;28;20108;-79
2022/11/02 07:40:39;;;;;;;10.18;1.95;;;12.80;99.90;;;-144.05;54.19;125687.94;5019075;28;20032;-77
2022/11/02 07:43:06;;;;;;;12.02;1.77;;;12.80;99.90;;;-144.05;54.03;125687.94;5037483;28;20473;-80
2022/11/02 07:45:32;;;;;;;7.20;2.55;;;12.80;99.90;;;-144.05;54.00;125687.94;5036622;28;20021;-78
2022/11/02 07:47:58;;;;;;;9.50;2.47;;;12.90;99.90;;;-144.05;53.80;125687.94;5035276;28;20033;-76
2022/11/02 07:50:28;;;;;;;10.05;2.08;;;13.00;99.90;;;-144.05;53.86;125687.94;5036004;28;20045;-78
2022/11/02 07:52:57;;;;;;;9.88;2.22;;;13.00;99.90;;;-144.05;53.83;125687.94;5036148;28;20484;-79
2022/11/02 07:55:30;;;;;;;13.25;2.58;;;13.00;99.90;;;-144.05;53.96;125687.94;5018403;28;20029;-78
2022/11/02 07:58:04;;;;;;;6.88;2.00;;;12.90;99.90;;;-144.05;53.14;125687.94;5035733;28;20056;-78
2022/11/02 08:00:38;;;;;;;12.48;2.05;;;13.00;99.90;;;-144.05;52.67;125687.94;5036549;28;20056;-79
2022/11/02 08:03:07;;;;;;;8.75;1.80;;;13.30;99.90;;;-144.05;51.45;125687.94;5036783;28;20116;-80
2022/11/02 08:05:40;;;;;;;8.68;2.13;;;13.50;99.90;;;-144.05;51.33;125687.94;5017955;28;20056;-78
2022/11/02 08:08:17;;;;;;;9.90;1.95;;;13.60;99.90;;;-144.05;51.22;125687.94;5015227;28;20072;-79
2022/11/02 08:10:48;;;;;;;8.82;1.88;;;13.80;99.90;;;-144.05;51.15;125687.94;5016139;28;20034;-79
2022/11/02 08:13:19;;;;;;;8.10;1.75;;;13.80;99.90;;;-144.05;51.38;125687.94;5034493;28;20057;-80
2022/11/02 08:15:53;;;;;;;6.45;1.90;;;13.80;99.90;;;-144.05;51.36;125687.94;5033301;28;20033;-79
2022/11/02 08:18:28;;;;;;;15.25;2.67;;;13.60;99.90;;;-144.05;52.36;125687.94;5032771;28;20068;-78
2022/11/02 08:20:57;;;;;;;8.55;2.88;;;13.50;99.90;;;-144.05;52.09;125687.94;5033185;28;20477;-80
2022/11/02 08:23:24;;;;;;;11.75;2.58;;;13.60;99.90;;;-144.05;51.64;125687.94;5032827;28;20029;-77
2022/11/02 08:25:53;;;;;;;8.48;2.10;;;13.70;99.90;;;-144.05;51.59;125687.94;5032740;28;20029;-81
2022/11/02 08:28:25;;;;;;;10.07;1.70;;;13.70;99.90;;;-144.05;51.06;125687.94;5032465;28;20561;-78
2022/11/02 08:30:52;;;;;;;8.32;2.05;;;13.80;99.90;;;-144.05;50.65;125687.94;5032437;28;20041;-80
2022/11/02 08:33:20;;;;;;;7.35;1.67;;;14.00;99.90;;;-144.05;50.13;125687.94;5014587;28;20041;-78
2022/11/02 08:35:47;;;;;;;12.45;1.92;;;14.20;99.90;;;-144.05;49.88;125687.94;5034402;28;20038;-80
2022/11/02 08:38:15;;;;;;;9.80;1.95;;;14.50;99.90;;;-144.05;49.50;125687.94;5017666;28;20025;-79
2022/11/02 08:40:42;;;;;;;8.82;2.25;;;14.50;99.90;;;-144.05;49.43;125687.94;5033727;28;20040;-81
2022/11/02 08:43:13;;;;;;;12.88;2.55;;;14.60;99.90;;;-144.05;49.18;125687.94;5032645;28;20487;-79
2022/11/02 08:45:44;;;;;;;16.23;2.45;;;14.60;99.90;;;-144.05;48.99;125687.94;5035751;28;20044;-81
2022/11/02 08:48:10;;;;;;;9.65;1.50;;;14.60;99.90;;;-144.05;49.02;125687.94;5035426;28;20032;-82
2022/11/02 08:50:37;;;;;;;8.95;2.08;;;14.60;99.90;;;-144.05;49.23;125687.94;5017577;28;20391;-80
2022/11/02 08:53:04;;;;;;;9.65;2.20;;;14.40;99.90;;;-144.05;49.25;125687.94;5035160;28;20041;-81
2022/11/02 08:55:30;;;;;;;9.25;1.98;;;14.20;99.90;;;-144.05;49.56;125687.94;5017852;28;20370;-83
2022/11/02 08:57:58;;;;;;;7.32;1.70;;;14.30;99.90;;;-144.05;49.38;125687.94;5034603;28;20037;-79
2022/11/02 09:00:29;;;;;;;8.30;1.92;;;14.30;99.90;;;-144.05;49.60;125687.94;5033903;28;20048;-80
2022/11/02 09:03:04;;;;;;;15.65;2.42;;;14.20;99.90;;;-144.05;50.38;125687.94;5033667;28;20037;-81
2022/11/02 09:05:41;;;;;;;11.93;2.20;;;14.00;99.90;;;-144.05;50.00;125687.94;5014710;28;20057;-82
2022/11/02 09:08:16;;;;;;;10.35;2.10;;;14.10;99.90;;;-144.05;49.80;125687.94;5014918;28;20040;-82
2022/11/02 09:10:44;;;;;;;9.13;2.17;;;13.90;99.90;;;-144.05;50.15;125687.94;5014744;28;20422;-79
2022/11/02 09:13:14;;;;;;;9.45;1.85;;;13.70;99.90;;;-144.05;50.39;125687.94;5031952;28;20750;-81
2022/11/02 09:15:40;;;;;;;9.23;2.13;;;13.60;99.90;;;-144.05;50.53;125687.94;5031924;28;20484;-79
2022/11/02 09:18:08;;;;;;;11.27;2.33;;;13.70;99.90;;;-144.05;49.78;125687.94;5014525;28;20041;-79
2022/11/02 09:20:35;;;;;;;10.57;1.88;;;14.10;99.90;;;-144.05;48.63;125687.94;5014626;28;20041;-80
2022/11/02 09:23:01;;;;;;;7.60;1.88;;;14.20;99.90;;;-144.05;48.52;125687.94;5031907;28;20031;-78
2022/11/02 09:25:27;;;;;;;8.50;2.25;;;14.50;99.90;;;-144.05;48.14;125687.94;5032072;28;20112;-80
2022/11/02 09:27:56;;;;;;;12.38;2.50;;;14.70;99.90;;;-144.05;47.02;125687.94;5031842;28;20036;-80
2022/11/02 09:30:25;;;;;;;6.50;1.98;;;14.80;99.90;;;-144.05;46.43;125687.94;5014448;28;20396;-78
2022/11/02 09:32:58;;;;;;;9.57;2.03;;;14.80;99.90;;;-144.05;46.44;125687.94;5031747;28;20112;-81
2022/11/02 09:35:29;;;;;;;10.00;2.30;;;14.80;99.90;;;-144.05;46.77;125687.94;5032160;28;20573;-80
2022/11/02 09:37:55;;;;;;;11.13;2.42;;;14.90;99.90;;;-144.05;47.16;125687.94;5032000;28;20041;-80
2022/11/02 09:40:29;;;;;;;7.93;2.33;;;14.80;99.90;;;-144.05;46.91;125687.94;5014180;28;20083;-79
2022/11/02 09:43:40;;;;;;;11.95;2.22;;;15.10;99.90;;;-144.05;46.50;125687.94;5014051;28;20076;-80
2022/11/02 09:46:23;;;;;;;10.07;2.42;;;15.00;99.90;;;-144.05;47.53;125687.94;5013712;28;20041;-79
2022/11/02 09:49:02;;;;;;;16.80;1.90;;;14.60;99.90;;;-144.05;47.58;125687.94;5031722;28;20035;-81
2022/11/02 09:51:43;;;;;;;7.68;2.00;;;14.70;99.90;;;-144.05;47.29;125687.94;5032907;28;20033;-78
2022/11/02 09:54:48;;;;;;;10.35;2.13;;;14.80;99.90;;;-144.05;47.29;125687.94;5034764;28;20404;-80
2022/11/02 09:57:27;;;;;;;9.13;2.13;;;14.40;99.90;;;-144.05;48.46;125687.94;5035900;28;20025;-77
2022/11/02 09:59:53;;;;;;;5.75;2.08;;;14.10;99.90;;;-144.05;47.70;125687.94;5037776;28;20082;-80
2022/11/02 10:02:46;;;;;;;8.15;1.73;;;13.90;99.90;;;-144.05;48.19;125687.94;5036457;28;20488;-81
2022/11/02 10:05:35;;;;;;;12.82;2.33;;;14.00;99.90;;;-144.05;48.13;125687.94;5038303;28;20041;-84
2022/11/02 10:08:50;;;;;;;12.75;2.50;;;14.30;99.90;;;-144.05;46.53;125687.94;5038532;28;20057;-83
2022/11/02 10:11:51;;;;;;;7.32;1.83;;;14.70;99.90;;;-144.05;45.91;125687.94;5020695;28;20055;-80
2022/11/02 10:14:45;;;;;;;11.95;1.83;;;15.10;99.90;;;-144.05;45.66;125687.94;5018815;28;20178;-78
2022/11/02 10:17:25;;;;;;;6.20;1.67;;;15.20;99.90;;;-144.05;45.52;125687.94;5036619;28;20037;-82
2022/11/02 10:20:01;;;;;;;6.60;1.77;;;14.80;99.90;;;-144.05;46.64;125687.94;5036804;28;20026;-80
2022/11/02 10:22:38;;;;;;;11.25;2.35;;;14.40;99.90;;;-144.05;46.61;125687.94;5018962;28;20048;-81
2022/11/02 10:25:10;;;;;;;9.20;1.60;;;14.20;99.90;;;-144.05;47.40;125687.94;5037580;28;20037;-80
2022/11/02 10:27:39;;;;;;;13.13;1.92;;;14.00;99.90;;;-144.05;47.68;125687.94;5018810;28;20120;-82
2022/11/02 10:30:18;;;;;;;8.45;2.10;;;13.80;99.90;;;-144.05;48.06;125687.94;5018665;28;20488;-80
2022/11/02 10:32:51;;;;;;;15.27;2.42;;;13.70;99.90;;;-144.05;48.37;125687.94;5018728;28;20477;-81